Time;durP1;ratioP1;P1;durP2;ratioP2;P2;SDS_P1;SDS_P2;PMS_P1;PMS_P2;Temp;Humidity;BMP_temperature;BMP_pressure;BME280_temperature;BME280_humidity;BME280_pressure;Samples;Min_cycle;Max_cycle;Signal;HPM_P1;HPM_P2
2023/11/14 00:00:04;;;;;;;8.15;5.25;;;13.70;96.70;;;;;;4963026;28;20047;-65
2023/11/14 00:02:34;;;;;;;10.30;5.55;;;13.70;96.70;;;;;;4965751;28;20043;-65
2023/11/14 00:05:03;;;;;;;6.50;5.07;;;13.70;96.70;;;;;;4969726;28;20046;-64
2023/11/14 00:07:31;;;;;;;10.40;4.85;;;13.70;96.70;;;;;;4969586;28;20039;-64
2023/11/14 00:10:00;;;;;;;7.55;4.85;;;13.70;96.70;;;;;;4967413;28;20053;-64
2023/11/14 00:12:28;;;;;;;7.38;4.55;;;13.60;96.70;;;;;;4970469;28;20597;-65
2023/11/14 00:14:57;;;;;;;6.63;4.40;;;13.60;96.70;;;;;;4967750;28;20043;-63
2023/11/14 00:17:25;;;;;;;6.45;4.18;;;13.60;96.70;;;;;;4970072;28;20078;-63
2023/11/14 00:19:57;;;;;;;7.22;4.65;;;13.60;96.70;;;;;;4965247;28;20117;-64
2023/11/14 00:22:25;;;;;;;9.68;6.25;;;13.60;96.70;;;;;;4969958;28;20398;-63
2023/11/14 00:24:53;;;;;;;13.77;6.70;;;13.60;96.70;;;;;;4970122;28;20509;-65
2023/11/14 00:27:23;;;;;;;11.05;6.63;;;13.60;96.70;;;;;;4968046;28;20055;-63
2023/11/14 00:29:51;;;;;;;11.77;6.72;;;13.60;96.70;;;;;;4969274;28;20051;-64
2023/11/14 00:32:20;;;;;;;9.88;5.35;;;13.60;96.70;;;;;;4969067;28;20047;-64
2023/11/14 00:34:49;;;;;;;15.23;6.55;;;13.60;96.70;;;;;;4968690;28;20560;-64
2023/11/14 00:37:19;;;;;;;14.88;7.25;;;13.70;96.70;;;;;;4966417;28;20058;-63
2023/11/14 00:39:47;;;;;;;10.15;4.90;;;13.60;96.70;;;;;;4966247;28;20079;-64
2023/11/14 00:42:16;;;;;;;7.05;4.65;;;13.60;96.70;;;;;;4968058;28;20101;-63
2023/11/14 00:44:45;;;;;;;7.25;4.47;;;13.60;96.70;;;;;;4959852;28;20141;-64
2023/11/14 00:47:13;;;;;;;7.18;4.47;;;13.70;96.70;;;;;;4954468;28;20098;-63
2023/11/14 00:49:41;;;;;;;5.20;4.30;;;13.70;96.70;;;;;;4967902;28;20046;-63
2023/11/14 00:52:10;;;;;;;7.40;4.00;;;13.70;96.70;;;;;;4962475;28;20133;-64
2023/11/14 00:54:40;;;;;;;8.07;4.28;;;13.70;96.70;;;;;;4967461;28;20075;-64
2023/11/14 00:57:08;;;;;;;7.00;3.90;;;13.70;96.70;;;;;;4968791;28;20560;-64
2023/11/14 00:59:37;;;;;;;8.48;4.07;;;13.70;96.70;;;;;;4967581;28;20042;-65
2023/11/14 01:02:08;;;;;;;9.57;4.75;;;13.70;96.70;;;;;;4967773;28;20066;-64
2023/11/14 01:04:39;;;;;;;6.50;3.60;;;13.70;96.70;;;;;;4968338;28;20042;-65
2023/11/14 01:07:09;;;;;;;6.00;3.70;;;13.70;96.70;;;;;;4968941;28;20046;-63
2023/11/14 01:09:39;;;;;;;7.95;4.22;;;13.70;96.70;;;;;;4960702;28;20182;-65
2023/11/14 01:12:08;;;;;;;13.35;4.22;;;13.70;96.70;;;;;;4961509;28;20050;-65
2023/11/14 01:14:37;;;;;;;5.32;3.70;;;13.70;96.70;;;;;;4964462;28;20130;-63
2023/11/14 01:17:07;;;;;;;7.00;4.10;;;13.70;96.70;;;;;;4967273;28;20053;-66
2023/11/14 01:19:39;;;;;;;5.40;4.15;;;13.70;96.70;;;;;;4960447;28;20039;-65
2023/11/14 01:22:09;;;;;;;8.93;3.97;;;13.70;96.70;;;;;;4963162;28;20067;-64
2023/11/14 01:24:39;;;;;;;5.25;3.70;;;13.70;96.70;;;;;;4957573;28;20059;-60
2023/11/14 01:27:08;;;;;;;6.30;3.75;;;13.70;96.70;;;;;;4966628;28;20063;-60
2023/11/14 01:29:37;;;;;;;7.88;3.60;;;13.70;96.70;;;;;;4968149;28;20074;-60
2023/11/14 01:32:06;;;;;;;4.95;3.75;;;13.80;96.70;;;;;;4966121;28;20047;-60
2023/11/14 01:34:35;;;;;;;5.03;3.72;;;13.70;96.70;;;;;;4964844;28;20494;-60
2023/11/14 01:37:04;;;;;;;6.20;3.95;;;13.80;96.70;;;;;;4964233;28;20047;-61
2023/11/14 01:39:33;;;;;;;5.18;3.83;;;13.80;96.70;;;;;;4964028;28;20046;-60
2023/11/14 01:42:04;;;;;;;6.85;4.53;;;13.80;96.70;;;;;;4968093;28;20074;-60
2023/11/14 01:44:32;;;;;;;8.93;4.30;;;13.80;96.70;;;;;;4952322;28;20141;-60
2023/11/14 01:47:01;;;;;;;6.32;4.03;;;13.80;96.70;;;;;;4968177;28;20066;-60
2023/11/14 01:49:30;;;;;;;6.40;3.97;;;13.80;96.70;;;;;;4967976;28;20038;-62
2023/11/14 01:51:59;;;;;;;6.78;4.38;;;13.80;96.70;;;;;;4965588;28;20066;-60
2023/11/14 01:54:28;;;;;;;6.22;3.90;;;13.80;96.70;;;;;;4962237;28;20094;-60
2023/11/14 01:56:57;;;;;;;8.05;4.40;;;13.80;96.70;;;;;;4967393;28;20074;-60
2023/11/14 01:59:27;;;;;;;8.45;4.63;;;13.80;96.70;;;;;;4967568;28;20496;-60
2023/11/14 02:01:58;;;;;;;5.90;3.97;;;13.80;96.70;;;;;;4968403;28;20067;-61
2023/11/14 02:04:28;;;;;;;5.50;4.07;;;13.80;96.70;;;;;;4972019;28;20545;-60
2023/11/14 02:06:58;;;;;;;8.40;4.38;;;13.80;96.70;;;;;;4961290;28;20395;-60
2023/11/14 02:09:27;;;;;;;5.97;3.90;;;13.80;96.70;;;;;;4967689;28;20097;-60
2023/11/14 02:11:56;;;;;;;7.88;4.50;;;13.80;96.70;;;;;;4968469;28;20153;-60
2023/11/14 02:14:27;;;;;;;7.18;3.63;;;13.80;96.70;;;;;;4966679;28;20042;-60
2023/11/14 02:16:56;;;;;;;5.43;3.25;;;13.80;96.70;;;;;;4966702;28;20378;-60
2023/11/14 02:19:24;;;;;;;6.45;3.22;;;13.80;96.70;;;;;;4967619;28;20046;-61
2023/11/14 02:21:53;;;;;;;5.85;3.75;;;13.80;96.70;;;;;;4966085;28;20057;-61
2023/11/14 02:24:22;;;;;;;5.35;3.55;;;13.80;96.70;;;;;;4966080;28;20472;-60
2023/11/14 02:26:52;;;;;;;5.72;3.00;;;13.80;96.70;;;;;;4965829;28;20074;-61
2023/11/14 02:29:22;;;;;;;5.20;3.72;;;13.80;96.70;;;;;;4962284;28;20057;-60
2023/11/14 02:31:51;;;;;;;5.13;2.90;;;13.80;96.70;;;;;;4968157;28;20078;-60
2023/11/14 02:34:20;;;;;;;4.93;3.38;;;13.70;96.70;;;;;;4958656;28;20038;-60
2023/11/14 02:36:48;;;;;;;5.57;2.70;;;13.70;96.70;;;;;;4959443;28;20059;-60
2023/11/14 02:39:17;;;;;;;6.25;2.70;;;13.70;96.70;;;;;;4963637;28;20044;-60
2023/11/14 02:41:45;;;;;;;5.22;2.60;;;13.70;96.70;;;;;;4966493;28;20504;-60
2023/11/14 02:44:15;;;;;;;8.10;2.90;;;13.70;96.70;;;;;;4967529;28;20047;-60
2023/11/14 02:46:45;;;;;;;4.97;2.30;;;13.70;96.70;;;;;;4966014;28;20141;-61
2023/11/14 02:49:45;;;;;;;5.75;2.42;;;13.70;96.70;;;;;;4967154;28;20295;-60
2023/11/14 02:52:14;;;;;;;8.35;2.40;;;13.60;96.70;;;;;;4962683;28;20051;-60
2023/11/14 02:54:42;;;;;;;6.50;2.50;;;13.60;96.70;;;;;;4965674;28;20486;-60
2023/11/14 02:57:12;;;;;;;7.07;2.33;;;13.60;96.70;;;;;;4968947;28;20058;-60
2023/11/14 02:59:42;;;;;;;8.20;2.17;;;13.50;96.70;;;;;;4970697;28;20050;-60
2023/11/14 03:02:11;;;;;;;6.72;1.90;;;13.50;96.70;;;;;;4970078;28;20082;-60
2023/11/14 03:04:39;;;;;;;4.47;2.00;;;13.50;96.70;;;;;;4964133;28;20083;-60
2023/11/14 03:07:08;;;;;;;4.88;2.00;;;13.50;96.70;;;;;;4968749;28;20113;-60
2023/11/14 03:09:37;;;;;;;4.65;1.92;;;13.50;96.70;;;;;;4972708;28;20478;-60
2023/11/14 03:12:06;;;;;;;5.90;2.08;;;13.50;96.70;;;;;;4971310;28;20122;-60
2023/11/14 03:14:36;;;;;;;5.80;2.15;;;13.50;96.70;;;;;;4967486;28;20375;-60
2023/11/14 03:17:06;;;;;;;4.60;1.85;;;13.40;96.70;;;;;;4968303;28;20090;-60
2023/11/14 03:19:40;;;;;;;5.72;1.55;;;13.40;96.70;;;;;;4961501;28;20517;-61
2023/11/14 03:22:09;;;;;;;5.55;1.92;;;13.40;96.70;;;;;;4962323;28;20043;-60
2023/11/14 03:24:39;;;;;;;4.38;1.80;;;13.40;96.70;;;;;;4961869;28;20066;-60
2023/11/14 03:27:08;;;;;;;3.25;1.60;;;13.40;96.70;;;;;;4966971;28;20051;-62
2023/11/14 03:29:36;;;;;;;4.20;1.50;;;13.50;96.70;;;;;;4970568;28;20046;-60
2023/11/14 03:32:07;;;;;;;5.82;2.17;;;13.50;96.70;;;;;;4970682;28;20066;-61
2023/11/14 03:34:36;;;;;;;5.70;1.83;;;13.50;96.70;;;;;;4970530;28;20470;-61
2023/11/14 03:37:04;;;;;;;3.00;1.40;;;13.50;96.70;;;;;;4971449;28;20074;-60
2023/11/14 03:39:33;;;;;;;4.50;1.58;;;13.50;96.70;;;;;;4973007;28;20470;-60
2023/11/14 03:42:02;;;;;;;4.20;1.40;;;13.50;96.70;;;;;;4964096;28;20414;-60
2023/11/14 03:44:30;;;;;;;5.95;1.48;;;13.50;96.70;;;;;;4970549;28;20414;-61
2023/11/14 03:46:58;;;;;;;4.88;1.40;;;13.50;96.70;;;;;;4971383;28;20058;-60
2023/11/14 03:49:29;;;;;;;3.63;1.55;;;13.50;96.70;;;;;;4970943;28;20062;-60
2023/11/14 03:51:57;;;;;;;5.70;1.63;;;13.50;96.70;;;;;;4979319;28;20052;-60
2023/11/14 03:54:26;;;;;;;7.10;1.65;;;13.60;96.70;;;;;;4971375;28;20039;-60
2023/11/14 03:56:55;;;;;;;3.35;1.40;;;13.60;96.70;;;;;;4971285;28;20090;-61
2023/11/14 03:59:24;;;;;;;8.13;1.65;;;13.60;96.70;;;;;;4970673;28;20073;-60
2023/11/14 04:01:54;;;;;;;4.15;1.48;;;13.60;96.70;;;;;;4971479;28;20046;-60
2023/11/14 04:04:24;;;;;;;5.07;1.50;;;13.60;96.70;;;;;;4969123;28;20064;-61
2023/11/14 04:06:55;;;;;;;4.80;1.55;;;13.60;96.70;;;;;;4970363;28;20047;-60
2023/11/14 04:09:24;;;;;;;9.27;2.00;;;13.60;96.70;;;;;;4970018;28;20079;-62
2023/11/14 04:11:52;;;;;;;4.97;1.52;;;13.60;96.70;;;;;;4967967;28;20070;-60
2023/11/14 04:14:21;;;;;;;4.00;1.65;;;13.60;96.70;;;;;;4962373;28;20050;-59
2023/11/14 04:16:50;;;;;;;4.43;1.67;;;13.60;96.70;;;;;;4957788;28;20047;-60
2023/11/14 04:19:19;;;;;;;7.72;1.70;;;13.60;96.70;;;;;;4969396;28;20153;-60
2023/11/14 04:21:49;;;;;;;4.32;1.63;;;13.60;96.70;;;;;;4968893;28;20078;-60
2023/11/14 04:24:19;;;;;;;4.93;1.52;;;13.60;96.70;;;;;;4968369;28;20065;-60
2023/11/14 04:26:48;;;;;;;7.05;1.58;;;13.60;96.70;;;;;;4969521;28;20431;-60
2023/11/14 04:29:16;;;;;;;4.15;2.10;;;13.60;96.70;;;;;;4970009;28;20486;-60
2023/11/14 04:31:45;;;;;;;5.78;1.40;;;13.60;96.70;;;;;;4964623;28;20049;-60
2023/11/14 04:34:14;;;;;;;4.30;1.60;;;13.60;96.70;;;;;;4967825;28;20046;-60
2023/11/14 04:36:43;;;;;;;4.60;1.52;;;13.60;96.70;;;;;;4969126;28;20124;-60
2023/11/14 04:39:12;;;;;;;4.60;1.42;;;13.60;96.70;;;;;;4962258;28;20051;-59
2023/11/14 04:41:42;;;;;;;7.90;1.75;;;13.60;96.70;;;;;;4960357;28;20043;-60
2023/11/14 04:44:12;;;;;;;3.70;1.70;;;13.60;96.70;;;;;;4968438;28;20109;-60
2023/11/14 04:46:43;;;;;;;6.60;2.25;;;13.60;96.70;;;;;;4969463;28;20039;-59
2023/11/14 04:49:13;;;;;;;6.15;1.67;;;13.60;96.70;;;;;;4960312;28;20047;-62
2023/11/14 04:51:42;;;;;;;6.05;2.10;;;13.60;96.70;;;;;;4969763;28;20135;-60
2023/11/14 04:54:11;;;;;;;3.97;1.77;;;13.60;96.70;;;;;;4969691;28;20054;-60
2023/11/14 04:56:40;;;;;;;2.85;1.70;;;13.60;96.70;;;;;;4969670;28;20054;-60
2023/11/14 04:59:09;;;;;;;4.55;1.90;;;13.60;96.70;;;;;;4967065;28;20051;-60
2023/11/14 05:01:38;;;;;;;3.35;1.60;;;13.60;96.70;;;;;;4968844;28;20054;-60
2023/11/14 05:04:07;;;;;;;3.33;1.65;;;13.60;96.70;;;;;;4953460;28;20423;-60
2023/11/14 05:06:35;;;;;;;2.35;1.40;;;13.60;96.70;;;;;;4969091;28;20070;-61
2023/11/14 05:09:04;;;;;;;4.38;1.92;;;13.60;96.70;;;;;;4964249;28;20133;-61
2023/11/14 05:11:37;;;;;;;2.50;1.55;;;13.60;96.70;;;;;;4969337;28;20046;-61
2023/11/14 05:14:08;;;;;;;8.60;1.42;;;13.50;96.70;;;;;;4968568;28;20053;-61
2023/11/14 05:16:39;;;;;;;3.50;1.15;;;13.50;96.70;;;;;;4968912;28;20059;-60
2023/11/14 05:19:09;;;;;;;4.43;1.58;;;13.50;96.70;;;;;;4967716;28;20066;-60
2023/11/14 05:21:38;;;;;;;6.15;1.60;;;13.40;96.70;;;;;;4968342;28;20090;-60
2023/11/14 05:24:09;;;;;;;5.30;2.22;;;13.40;96.70;;;;;;4968869;28;20498;-61
2023/11/14 05:26:38;;;;;;;3.50;2.35;;;13.40;96.70;;;;;;4968493;28;20058;-60
2023/11/14 05:29:08;;;;;;;2.88;1.55;;;13.40;96.70;;;;;;4968024;28;20083;-60
2023/11/14 05:31:37;;;;;;;4.50;1.92;;;13.30;96.70;;;;;;4961858;28;20051;-60
2023/11/14 05:34:05;;;;;;;4.40;1.50;;;13.30;96.70;;;;;;4968109;28;20031;-61
2023/11/14 05:36:37;;;;;;;4.18;1.70;;;13.30;96.70;;;;;;4971047;28;20060;-61
2023/11/14 05:39:06;;;;;;;7.55;2.30;;;13.30;96.70;;;;;;4959828;28;20051;-61
2023/11/14 05:41:36;;;;;;;4.43;1.40;;;13.30;96.70;;;;;;4956897;28;20063;-60
2023/11/14 05:44:05;;;;;;;4.90;1.80;;;13.30;96.70;;;;;;4966883;28;20395;-61
2023/11/14 05:46:35;;;;;;;5.25;1.80;;;13.30;96.70;;;;;;4957459;28;20047;-61
2023/11/14 05:49:04;;;;;;;3.22;1.75;;;13.30;96.70;;;;;;4966713;28;20042;-60
2023/11/14 05:51:33;;;;;;;4.50;1.67;;;13.30;96.70;;;;;;4967884;28;20054;-61
2023/11/14 05:54:01;;;;;;;6.47;2.22;;;13.30;96.70;;;;;;4968577;28;20048;-61
2023/11/14 05:56:30;;;;;;;8.05;1.92;;;13.30;96.70;;;;;;4968692;28;20049;-62
2023/11/14 05:58:59;;;;;;;4.28;2.05;;;13.30;96.70;;;;;;4963581;28;20047;-62
2023/11/14 06:01:28;;;;;;;5.00;2.47;;;13.30;96.70;;;;;;4968560;28;20043;-61
2023/11/14 06:03:58;;;;;;;5.60;2.00;;;13.20;96.70;;;;;;4968588;28;20057;-61
2023/11/14 06:06:27;;;;;;;3.85;1.98;;;13.20;96.70;;;;;;4960842;28;20053;-60
2023/11/14 06:08:56;;;;;;;3.85;2.28;;;13.20;96.70;;;;;;4968793;28;20109;-60
2023/11/14 06:11:24;;;;;;;5.18;2.08;;;13.20;96.70;;;;;;4968617;28;20046;-61
2023/11/14 06:13:52;;;;;;;6.40;2.38;;;13.30;96.70;;;;;;4968085;28;20043;-60
2023/11/14 06:16:21;;;;;;;5.78;2.03;;;13.20;96.70;;;;;;4968224;28;20046;-64
2023/11/14 06:18:54;;;;;;;3.70;2.20;;;13.30;96.70;;;;;;4960153;28;20066;-65
2023/11/14 06:21:23;;;;;;;6.70;2.55;;;13.30;96.70;;;;;;4968490;28;20038;-63
2023/11/14 06:23:53;;;;;;;5.25;1.98;;;13.30;96.70;;;;;;4963580;28;20063;-64
2023/11/14 06:26:21;;;;;;;5.43;2.25;;;13.30;96.70;;;;;;4959211;28;20049;-64
2023/11/14 06:28:50;;;;;;;4.07;2.17;;;13.30;96.70;;;;;;4965909;28;20055;-65
2023/11/14 06:31:18;;;;;;;5.40;2.30;;;13.40;96.70;;;;;;4968025;28;20057;-63
2023/11/14 06:33:47;;;;;;;7.05;2.40;;;13.40;96.70;;;;;;4969445;28;20049;-64
2023/11/14 06:36:16;;;;;;;5.22;2.40;;;13.40;96.70;;;;;;4959686;28;20097;-64
2023/11/14 06:38:46;;;;;;;6.70;2.80;;;13.40;96.70;;;;;;4963850;28;20057;-64
2023/11/14 06:41:14;;;;;;;7.25;2.22;;;13.40;96.70;;;;;;4971747;28;20074;-65
2023/11/14 06:43:43;;;;;;;8.02;2.10;;;13.40;96.70;;;;;;4970705;28;20126;-64
2023/11/14 06:46:12;;;;;;;5.32;2.33;;;13.40;96.70;;;;;;4962403;28;20043;-64
2023/11/14 06:48:40;;;;;;;6.28;2.40;;;13.50;96.70;;;;;;4962626;28;20125;-64
2023/11/14 06:51:11;;;;;;;5.55;2.20;;;13.50;96.70;;;;;;4970608;28;20043;-64
2023/11/14 06:53:39;;;;;;;6.07;2.22;;;13.50;96.70;;;;;;4972002;28;20105;-63
2023/11/14 06:56:13;;;;;;;5.40;2.53;;;13.50;96.70;;;;;;4958410;28;20106;-66
2023/11/14 06:58:42;;;;;;;8.57;3.53;;;13.60;96.70;;;;;;4970764;28;20055;-64
2023/11/14 07:01:13;;;;;;;7.47;3.33;;;13.60;96.70;;;;;;4971965;28;20051;-63
2023/11/14 07:03:43;;;;;;;8.57;3.88;;;13.60;96.70;;;;;;4971907;28;20062;-64
2023/11/14 07:06:12;;;;;;;11.05;3.85;;;13.70;96.70;;;;;;4963380;28;20052;-63
2023/11/14 07:08:41;;;;;;;8.80;3.17;;;13.70;96.70;;;;;;4964373;28;20601;-65
2023/11/14 07:11:11;;;;;;;6.85;2.63;;;13.70;96.70;;;;;;4975721;28;20058;-64
2023/11/14 07:13:39;;;;;;;6.90;2.97;;;13.80;96.70;;;;;;4970788;28;20053;-63
2023/11/14 07:16:09;;;;;;;6.03;2.25;;;13.80;96.70;;;;;;4970927;28;20721;-65
2023/11/14 07:18:38;;;;;;;7.47;2.58;;;13.90;96.70;;;;;;4970917;28;20089;-63
2023/11/14 07:21:06;;;;;;;7.47;2.15;;;14.00;96.70;;;;;;4970430;28;20035;-64
2023/11/14 07:23:35;;;;;;;10.65;3.03;;;14.00;96.70;;;;;;4971423;28;20046;-63
2023/11/14 07:26:04;;;;;;;5.55;3.38;;;14.10;96.70;;;;;;4971756;28;20113;-64
2023/11/14 07:28:34;;;;;;;6.13;3.03;;;14.10;96.70;;;;;;4971302;28;20067;-64
2023/11/14 07:31:05;;;;;;;8.32;3.28;;;14.20;96.70;;;;;;4962971;28;20059;-64
2023/11/14 07:33:33;;;;;;;9.25;2.95;;;14.20;96.70;;;;;;4962648;28;20046;-64
2023/11/14 07:36:02;;;;;;;9.43;3.85;;;14.20;96.70;;;;;;4971170;28;20146;-64
2023/11/14 07:38:31;;;;;;;9.15;3.28;;;14.20;96.70;;;;;;4961283;28;20090;-62
2023/11/14 07:40:59;;;;;;;9.55;3.92;;;14.30;96.70;;;;;;4962404;28;20431;-61
2023/11/14 07:43:29;;;;;;;8.05;3.30;;;14.30;96.70;;;;;;4966869;28;20045;-62
2023/11/14 07:45:59;;;;;;;7.18;2.95;;;14.30;96.70;;;;;;4971670;28;20533;-61
2023/11/14 07:48:27;;;;;;;8.25;3.22;;;14.40;96.70;;;;;;4969918;28;20035;-61
2023/11/14 07:50:57;;;;;;;6.65;3.47;;;14.40;96.70;;;;;;4964136;28;20576;-61
2023/11/14 07:53:25;;;;;;;9.93;3.70;;;14.50;96.70;;;;;;4970299;28;20038;-60
2023/11/14 07:55:54;;;;;;;10.98;3.50;;;14.50;96.70;;;;;;4964903;28;20085;-61
2023/11/14 07:58:25;;;;;;;10.75;3.55;;;14.50;96.70;;;;;;4969904;28;20061;-61
2023/11/14 08:00:53;;;;;;;7.03;3.00;;;14.60;96.70;;;;;;4969859;28;20050;-62
2023/11/14 08:03:23;;;;;;;10.82;3.58;;;14.60;96.70;;;;;;4972075;28;20051;-65
2023/11/14 08:05:52;;;;;;;11.93;4.88;;;14.70;96.70;;;;;;4964802;28;20122;-65
2023/11/14 08:08:20;;;;;;;9.00;4.22;;;14.70;96.70;;;;;;4969240;28;20580;-65
2023/11/14 08:10:49;;;;;;;8.90;3.45;;;14.70;96.70;;;;;;4962793;28;20429;-65
2023/11/14 08:13:17;;;;;;;9.05;4.43;;;14.70;96.70;;;;;;4969505;28;20046;-61
2023/11/14 08:15:47;;;;;;;11.45;4.57;;;14.70;96.70;;;;;;4970366;28;20061;-73
2023/11/14 08:18:17;;;;;;;11.15;4.53;;;14.80;96.70;;;;;;4963151;28;20043;-61
2023/11/14 08:20:46;;;;;;;10.32;3.92;;;14.80;96.70;;;;;;4970258;28;20043;-61
2023/11/14 08:23:17;;;;;;;8.43;3.28;;;14.90;96.70;;;;;;4970383;28;20100;-62
2023/11/14 08:25:45;;;;;;;10.80;4.30;;;14.90;96.70;;;;;;4969377;28;20085;-62
2023/11/14 08:28:14;;;;;;;12.23;3.45;;;15.00;96.70;;;;;;4961625;28;20499;-63
2023/11/14 08:30:42;;;;;;;10.60;3.42;;;15.10;96.70;;;;;;4968737;28;20050;-62
2023/11/14 08:33:10;;;;;;;7.50;3.45;;;15.20;96.70;;;;;;4965952;28;20075;-62
2023/11/14 08:35:39;;;;;;;8.15;3.22;;;15.20;96.70;;;;;;4969190;28;20041;-72
2023/11/14 08:38:09;;;;;;;10.32;3.60;;;15.20;96.70;;;;;;4961685;28;20047;-64
2023/11/14 08:40:48;;;;;;;8.45;3.58;;;15.20;96.70;;;;;;4960396;28;20043;-64
2023/11/14 08:43:18;;;;;;;7.82;3.70;;;15.30;96.70;;;;;;4960546;28;20041;-61
2023/11/14 08:45:46;;;;;;;9.25;3.42;;;15.40;96.70;;;;;;4957347;28;20049;-64
2023/11/14 08:48:16;;;;;;;8.50;3.25;;;15.40;96.70;;;;;;4969136;28;20127;-64
2023/11/14 08:50:44;;;;;;;7.45;3.45;;;15.50;96.70;;;;;;4968208;28;20083;-64
2023/11/14 08:53:14;;;;;;;6.55;3.00;;;15.60;96.70;;;;;;4962640;28;20047;-62
2023/11/14 08:55:43;;;;;;;7.15;3.00;;;15.70;96.70;;;;;;4966017;28;20066;-62
2023/11/14 08:58:11;;;;;;;6.60;2.70;;;15.70;96.70;;;;;;4963468;28;20417;-63
2023/11/14 09:00:39;;;;;;;8.20;3.00;;;15.90;96.70;;;;;;4961314;28;20035;-63
2023/11/14 09:03:08;;;;;;;7.32;2.88;;;16.00;96.70;;;;;;4968138;28;20043;-64
2023/11/14 09:05:36;;;;;;;7.85;2.75;;;16.10;96.70;;;;;;4965654;28;20058;-64
2023/11/14 09:08:05;;;;;;;7.32;3.20;;;16.10;96.70;;;;;;4966039;28;20121;-64
2023/11/14 09:10:35;;;;;;;5.80;2.92;;;16.10;96.70;;;;;;4961294;28;20042;-63
2023/11/14 09:13:03;;;;;;;7.15;2.65;;;16.10;96.70;;;;;;4962657;28;20050;-64
2023/11/14 09:15:31;;;;;;;11.63;2.95;;;16.10;96.70;;;;;;4960624;28;20036;-62
2023/11/14 09:17:59;;;;;;;7.35;2.35;;;16.10;96.70;;;;;;4967052;28;20051;-65
2023/11/14 09:20:28;;;;;;;10.80;3.28;;;16.10;96.70;;;;;;4968734;28;20046;-63
2023/11/14 09:22:56;;;;;;;6.35;2.42;;;16.10;96.70;;;;;;4969439;28;20902;-62
2023/11/14 09:25:28;;;;;;;9.70;3.40;;;16.20;96.70;;;;;;4963416;28;20045;-63
2023/11/14 09:27:59;;;;;;;8.93;3.22;;;16.20;96.70;;;;;;4962006;28;20620;-63
2023/11/14 09:30:29;;;;;;;5.13;2.67;;;16.20;96.70;;;;;;4962919;28;20039;-62
2023/11/14 09:32:57;;;;;;;8.13;2.47;;;16.20;96.70;;;;;;4968127;28;20043;-63
2023/11/14 09:35:26;;;;;;;8.18;2.95;;;16.30;96.70;;;;;;4961807;28;20138;-62
2023/11/14 09:37:56;;;;;;;6.93;3.55;;;16.30;96.70;;;;;;4967577;28;20058;-61
2023/11/14 09:40:25;;;;;;;10.52;3.17;;;16.30;96.70;;;;;;4969053;28;20054;-63
2023/11/14 09:42:54;;;;;;;7.70;3.10;;;16.30;96.70;;;;;;4962710;28;20066;-62
2023/11/14 09:45:24;;;;;;;11.82;3.33;;;16.30;96.70;;;;;;4967940;28;20622;-61
2023/11/14 09:47:54;;;;;;;15.27;3.97;;;16.40;96.70;;;;;;4963361;28;20047;-62
2023/11/14 09:50:23;;;;;;;6.95;3.00;;;16.40;96.70;;;;;;4968839;28;20413;-62
2023/11/14 09:52:53;;;;;;;7.07;3.38;;;16.40;96.70;;;;;;4968756;28;20481;-61
2023/11/14 09:55:21;;;;;;;8.35;3.22;;;16.40;96.70;;;;;;4968858;28;20105;-61
2023/11/14 09:57:50;;;;;;;11.05;3.25;;;16.40;96.70;;;;;;4966731;28;20062;-61
2023/11/14 10:00:20;;;;;;;8.50;3.70;;;16.40;96.70;;;;;;4962316;28;20064;-62
2023/11/14 10:02:51;;;;;;;9.63;4.22;;;16.50;96.70;;;;;;4965593;28;20506;-61
2023/11/14 10:05:20;;;;;;;10.07;4.32;;;16.60;96.70;;;;;;4967497;28;20050;-59
2023/11/14 10:07:49;;;;;;;10.02;3.88;;;16.70;96.70;;;;;;4969363;28;20581;-62
2023/11/14 10:10:18;;;;;;;9.55;3.83;;;16.70;96.70;;;;;;4966849;28;20470;-62
2023/11/14 10:12:50;;;;;;;11.23;4.05;;;16.70;96.70;;;;;;4962979;28;21479;-62
2023/11/14 10:15:30;;;;;;;17.15;4.70;;;16.70;96.70;;;;;;4968560;28;20031;-62
2023/11/14 10:18:02;;;;;;;10.98;3.83;;;16.60;96.70;;;;;;4968903;28;20039;-65
2023/11/14 10:20:38;;;;;;;7.50;4.15;;;16.70;96.70;;;;;;4961150;28;20549;-65
2023/11/14 10:23:09;;;;;;;15.90;4.53;;;16.70;96.70;;;;;;4962141;28;20438;-62
2023/11/14 10:26:03;;;;;;;11.68;4.30;;;16.80;96.70;;;;;;4959706;28;20039;-61
2023/11/14 10:28:33;;;;;;;9.63;3.92;;;16.90;96.70;;;;;;4963838;28;20050;-66
2023/11/14 10:31:02;;;;;;;12.65;4.90;;;16.90;96.70;;;;;;4963899;28;20055;-66
2023/11/14 10:33:47;;;;;;;9.98;4.60;;;16.80;96.70;;;;;;4961254;28;20139;-66
2023/11/14 10:36:16;;;;;;;10.60;4.35;;;16.90;96.70;;;;;;4964110;28;20771;-66
2023/11/14 10:39:01;;;;;;;12.48;4.28;;;16.80;96.70;;;;;;4959636;28;20067;-66
2023/11/14 10:41:29;;;;;;;13.20;4.78;;;16.80;96.70;;;;;;4966959;28;20058;-69
2023/11/14 10:44:09;;;;;;;9.73;4.50;;;16.80;96.70;;;;;;4968747;28;20061;-62
2023/11/14 10:46:37;;;;;;;12.25;3.95;;;16.80;96.70;;;;;;4959421;28;20098;-62
2023/11/14 10:49:09;;;;;;;8.98;4.03;;;16.80;96.70;;;;;;4958544;28;20051;-61
2023/11/14 10:51:38;;;;;;;12.82;4.30;;;16.90;96.70;;;;;;4958914;28;20114;-62
2023/11/14 10:54:07;;;;;;;10.23;4.07;;;17.10;96.70;;;;;;4963970;28;20491;-62
2023/11/14 10:56:36;;;;;;;11.82;4.22;;;17.20;96.70;;;;;;4964100;28;20062;-62
2023/11/14 10:59:16;;;;;;;10.98;4.00;;;17.40;96.70;;;;;;4968229;28;20039;-62
2023/11/14 11:01:46;;;;;;;14.35;5.07;;;17.60;96.70;;;;;;4959900;28;20054;-62
2023/11/14 11:04:17;;;;;;;17.40;5.57;;;17.80;96.70;;;;;;4967999;28;20046;-62
2023/11/14 11:06:46;;;;;;;13.00;5.18;;;18.10;96.70;;;;;;4967963;28;20134;-63
2023/11/14 11:09:15;;;;;;;14.75;5.95;;;18.40;96.70;;;;;;4967373;28;20089;-61
2023/11/14 11:11:49;;;;;;;12.30;6.10;;;18.60;96.70;;;;;;4959607;28;20066;-62
2023/11/14 11:14:19;;;;;;;13.75;5.35;;;18.80;96.70;;;;;;4967771;28;20708;-62
2023/11/14 11:16:48;;;;;;;11.15;4.75;;;19.00;96.70;;;;;;4968017;28;20126;-61
2023/11/14 11:19:37;;;;;;;11.43;4.75;;;19.10;96.70;;;;;;4970002;28;20125;-62
2023/11/14 11:22:06;;;;;;;9.90;4.40;;;19.30;96.70;;;;;;4971660;28;20054;-62
2023/11/14 11:24:35;;;;;;;7.15;3.33;;;19.40;96.70;;;;;;4967227;28;20125;-62
2023/11/14 11:27:12;;;;;;;8.57;3.30;;;19.60;96.70;;;;;;4968606;28;20102;-61
2023/11/14 11:29:48;;;;;;;7.65;3.00;;;19.70;96.70;;;;;;4970614;28;20294;-66
2023/11/14 11:32:35;;;;;;;;;;;19.80;96.70;;;;;;4964540;28;21045;-65
2023/11/14 11:35:26;;;;;;;9.13;2.65;;;19.90;96.70;;;;;;4970730;28;20016;-67
2023/11/14 11:37:57;;;;;;;7.80;3.17;;;19.90;96.70;;;;;;4962031;28;20054;-66
2023/11/14 11:40:27;;;;;;;9.57;2.90;;;20.00;96.70;;;;;;4964683;28;20055;-66
2023/11/14 11:42:58;;;;;;;8.07;2.65;;;20.00;96.70;;;;;;4971672;28;20051;-65
2023/11/14 11:45:36;;;;;;;8.60;2.75;;;20.10;96.70;;;;;;4971294;28;20042;-65
2023/11/14 11:48:24;;;;;;;11.48;3.17;;;20.20;96.70;;;;;;4970923;28;20268;-65
2023/11/14 11:50:55;;;;;;;8.10;3.10;;;20.30;96.70;;;;;;4970719;28;20157;-67
2023/11/14 11:53:42;;;;;;;7.30;2.78;;;20.30;96.70;;;;;;4971006;28;20433;-66
2023/11/14 11:56:39;;;;;;;7.68;3.13;;;20.40;96.70;;;;;;4970090;28;20042;-65
2023/11/14 11:59:08;;;;;;;10.77;3.28;;;20.70;96.70;;;;;;4969344;28;20074;-66
2023/11/14 12:01:48;;;;;;;6.20;2.80;;;20.80;96.70;;;;;;4961091;28;20101;-65
2023/11/14 12:04:18;;;;;;;9.82;3.45;;;20.80;96.70;;;;;;4957585;28;20049;-65
2023/11/14 12:06:48;;;;;;;8.90;2.85;;;20.80;96.70;;;;;;4970470;28;20119;-65
2023/11/14 12:09:18;;;;;;;10.18;3.70;;;20.90;96.70;;;;;;4970550;28;20038;-65
2023/11/14 12:11:46;;;;;;;11.20;3.28;;;21.10;96.70;;;;;;4960945;28;20043;-65
2023/11/14 12:14:20;;;;;;;12.65;3.42;;;21.20;96.70;;;;;;4963561;28;20079;-66
2023/11/14 12:16:49;;;;;;;10.82;3.90;;;21.20;96.70;;;;;;4971455;28;20047;-65
2023/11/14 12:19:18;;;;;;;11.38;3.60;;;21.30;96.70;;;;;;4970444;28;20482;-66
2023/11/14 12:21:56;;;;;;;8.70;3.35;;;21.50;96.70;;;;;;4970361;28;20042;-65
2023/11/14 12:24:25;;;;;;;11.05;3.30;;;21.60;96.70;;;;;;4962464;28;20047;-65
2023/11/14 12:26:53;;;;;;;14.90;3.28;;;21.60;96.70;;;;;;4970013;28;20065;-65
2023/11/14 12:29:22;;;;;;;13.65;3.67;;;21.60;96.70;;;;;;4969933;28;20047;-65
2023/11/14 12:31:53;;;;;;;10.40;3.03;;;21.70;96.70;;;;;;4970200;28;20071;-65
2023/11/14 12:34:25;;;;;;;6.35;2.78;;;21.70;96.70;;;;;;4968410;28;20046;-66
2023/11/14 12:37:07;;;;;;;11.82;3.40;;;21.70;96.70;;;;;;4962308;28;20050;-66
2023/11/14 12:39:36;;;;;;;6.47;2.63;;;21.70;96.70;;;;;;4970255;28;20047;-66
2023/11/14 12:42:05;;;;;;;6.88;3.10;;;21.80;96.70;;;;;;4970252;28;20518;-65
2023/11/14 12:44:35;;;;;;;10.82;3.85;;;21.90;96.70;;;;;;4969438;28;20050;-65
2023/11/14 12:47:08;;;;;;;9.57;3.20;;;22.00;96.70;;;;;;4970129;28;20082;-66
2023/11/14 12:49:47;;;;;;;9.75;3.28;;;22.10;96.70;;;;;;4969712;28;20607;-66
2023/11/14 12:52:22;;;;;;;9.93;3.47;;;22.10;96.70;;;;;;4969505;28;20105;-66
2023/11/14 12:54:50;;;;;;;13.35;4.85;;;22.20;96.70;;;;;;4959364;28;20055;-66
2023/11/14 12:57:19;;;;;;;8.00;3.30;;;22.30;96.70;;;;;;4962016;28;20446;-66
2023/11/14 12:59:49;;;;;;;6.82;2.30;;;22.40;96.70;;;;;;4957734;28;20054;-66